createdAt,value
2017-09-07T00:01:21.856Z,9.10
2017-09-07T00:03:48.142Z,8.70
2017-09-07T00:06:14.438Z,9.73
2017-09-07T00:08:40.792Z,8.53
2017-09-07T00:11:07.092Z,8.47
2017-09-07T00:13:33.389Z,9.50
2017-09-07T00:15:59.720Z,9.80
2017-09-07T00:18:26.011Z,9.07
2017-09-07T00:20:52.293Z,8.60
2017-09-07T00:23:18.638Z,9.47
2017-09-07T00:25:44.952Z,9.17
2017-09-07T00:28:11.239Z,8.70
2017-09-07T00:30:37.589Z,9.83
2017-09-07T00:33:03.890Z,9.27
2017-09-07T00:35:30.191Z,10.10
2017-09-07T00:37:56.548Z,9.10
2017-09-07T00:40:22.872Z,10.17
2017-09-07T00:42:49.172Z,9.30
2017-09-07T00:45:15.522Z,9.73
2017-09-07T00:47:41.811Z,9.70
2017-09-07T00:50:08.110Z,9.57
2017-09-07T00:52:34.468Z,10.10
2017-09-07T00:55:00.773Z,10.20
2017-09-07T00:57:27.057Z,9.10
2017-09-07T00:59:53.421Z,9.87
2017-09-07T01:02:19.721Z,10.07
2017-09-07T01:04:46.006Z,10.17
2017-09-07T01:07:12.360Z,9.47
2017-09-07T01:09:38.665Z,10.03
2017-09-07T01:12:04.964Z,10.23
2017-09-07T01:14:31.344Z,8.87
2017-09-07T01:16:57.633Z,9.73
2017-09-07T01:19:23.932Z,11.60
2017-09-07T01:21:50.315Z,8.97
2017-09-07T01:24:16.619Z,9.87
2017-09-07T01:26:42.934Z,9.80
2017-09-07T01:29:09.296Z,10.23
2017-09-07T01:31:35.601Z,10.60
2017-09-07T01:34:01.920Z,10.40
2017-09-07T01:36:28.279Z,9.70
2017-09-07T01:38:54.582Z,10.30
2017-09-07T01:41:20.882Z,9.27
2017-09-07T01:43:47.233Z,10.50
2017-09-07T01:46:13.548Z,10.20
2017-09-07T01:48:39.850Z,9.03
2017-09-07T01:51:06.217Z,10.03
2017-09-07T01:53:32.512Z,9.20
2017-09-07T01:55:58.823Z,10.20
2017-09-07T01:58:25.143Z,12.97
2017-09-07T02:00:51.461Z,10.07
2017-09-07T02:03:17.760Z,10.40
2017-09-07T02:05:44.082Z,10.33
2017-09-07T02:08:10.405Z,10.70
2017-09-07T02:10:36.709Z,10.10
2017-09-07T02:13:03.023Z,8.83
2017-09-07T02:15:29.327Z,9.70
2017-09-07T02:17:55.641Z,10.63
2017-09-07T02:20:21.960Z,12.47
2017-09-07T02:22:48.262Z,10.57
2017-09-07T02:25:14.644Z,9.90
2017-09-07T02:27:40.938Z,10.73
2017-09-07T02:30:07.246Z,10.50
2017-09-07T02:32:33.607Z,10.83
2017-09-07T02:34:59.921Z,10.30
2017-09-07T02:37:26.239Z,10.13
2017-09-07T02:39:52.583Z,10.70
2017-09-07T02:42:18.873Z,11.40
2017-09-07T02:44:45.166Z,11.30
2017-09-07T02:47:11.532Z,11.33
2017-09-07T02:49:37.839Z,11.13
2017-09-07T02:52:04.150Z,11.40
2017-09-07T02:54:30.568Z,11.07
2017-09-07T02:56:56.873Z,10.43
2017-09-07T02:59:23.196Z,12.20
2017-09-07T03:01:49.564Z,11.00
2017-09-07T03:04:15.873Z,11.57
2017-09-07T03:06:42.164Z,10.87
2017-09-07T03:09:08.538Z,10.83
2017-09-07T03:11:34.847Z,11.30
2017-09-07T03:14:01.167Z,11.27
2017-09-07T03:16:27.514Z,10.77
2017-09-07T03:18:53.831Z,11.57
2017-09-07T03:21:20.160Z,10.83
2017-09-07T03:23:46.517Z,12.03
2017-09-07T03:26:12.824Z,11.60
2017-09-07T03:28:39.144Z,10.80
2017-09-07T03:31:05.516Z,11.50
2017-09-07T03:33:31.815Z,11.47
2017-09-07T03:35:58.113Z,11.43
2017-09-07T03:38:24.490Z,10.40
2017-09-07T03:40:50.811Z,10.73
2017-09-07T03:43:17.116Z,10.20
2017-09-07T03:45:43.500Z,10.80
2017-09-07T03:48:09.847Z,10.97
2017-09-07T03:50:36.168Z,11.73
2017-09-07T03:53:02.521Z,10.07
2017-09-07T03:55:28.817Z,9.60
2017-09-07T03:57:55.132Z,9.43
2017-09-07T04:00:21.459Z,8.70
2017-09-07T04:02:47.760Z,10.33
2017-09-07T04:05:14.062Z,11.80
2017-09-07T04:07:40.453Z,12.17
2017-09-07T04:10:06.758Z,9.20
2017-09-07T04:12:33.067Z,8.60
2017-09-07T04:14:59.464Z,7.73
2017-09-07T04:17:25.771Z,7.33
2017-09-07T04:19:52.083Z,6.73
2017-09-07T04:22:18.457Z,7.30
2017-09-07T04:24:44.767Z,7.30
2017-09-07T04:27:11.062Z,5.57
2017-09-07T04:29:37.428Z,6.07
2017-09-07T04:32:03.748Z,5.00
2017-09-07T04:34:30.052Z,6.00
2017-09-07T04:36:56.441Z,7.00
2017-09-07T04:39:22.773Z,5.63
2017-09-07T04:41:50.085Z,6.53
2017-09-07T04:44:16.459Z,8.13
2017-09-07T04:46:42.772Z,9.07
2017-09-07T04:49:09.084Z,8.23
2017-09-07T04:51:35.469Z,9.10
2017-09-07T04:54:01.765Z,8.10
2017-09-07T04:56:28.067Z,9.87
2017-09-07T04:58:54.439Z,10.63
2017-09-07T05:01:20.756Z,7.00
2017-09-07T05:03:47.078Z,5.47
2017-09-07T05:06:13.780Z,5.53
2017-09-07T05:08:40.275Z,4.93
2017-09-07T05:11:06.585Z,4.97
2017-09-07T05:13:32.937Z,5.30
2017-09-07T05:15:59.237Z,4.90
2017-09-07T05:18:25.534Z,7.07
2017-09-07T05:20:51.885Z,4.93
2017-09-07T05:23:18.211Z,4.73
2017-09-07T05:25:44.512Z,5.73
2017-09-07T05:28:10.887Z,8.80
2017-09-07T05:30:37.184Z,5.10
2017-09-07T05:33:03.480Z,3.47
2017-09-07T05:35:29.835Z,3.83
2017-09-07T05:37:56.125Z,4.87
2017-09-07T05:40:22.428Z,5.07
2017-09-07T05:42:48.819Z,4.30
2017-09-07T05:45:15.121Z,5.23
2017-09-07T05:47:41.424Z,5.27
2017-09-07T05:50:07.778Z,5.73
2017-09-07T05:52:34.077Z,4.90
2017-09-07T05:55:00.364Z,6.33
2017-09-07T05:57:26.712Z,5.47
2017-09-07T05:59:53.010Z,6.30
2017-09-07T06:02:19.321Z,6.77
2017-09-07T06:04:45.695Z,10.30
2017-09-07T06:07:12.037Z,7.53
2017-09-07T06:09:38.342Z,8.40
2017-09-07T06:12:04.725Z,10.80
2017-09-07T06:14:31.028Z,10.47
2017-09-07T06:16:57.340Z,9.50
2017-09-07T06:19:23.714Z,11.17
2017-09-07T06:21:50.016Z,10.67
2017-09-07T06:24:16.321Z,9.70
2017-09-07T06:26:42.703Z,7.80
2017-09-07T06:29:09.042Z,8.67
2017-09-07T06:31:35.347Z,9.93
2017-09-07T06:34:01.711Z,11.80
2017-09-07T06:36:28.016Z,10.90
2017-09-07T06:38:54.342Z,10.47
2017-09-07T06:41:20.720Z,11.10
2017-09-07T06:43:47.037Z,9.60
2017-09-07T06:46:13.346Z,9.33
2017-09-07T06:48:39.701Z,8.70
2017-09-07T06:51:06.027Z,10.50
2017-09-07T06:53:32.347Z,7.90
2017-09-07T06:55:58.835Z,9.60
2017-09-07T06:58:25.225Z,7.00
2017-09-07T07:00:51.622Z,6.63
2017-09-07T07:03:18.069Z,7.37
2017-09-07T07:05:44.484Z,6.57
2017-09-07T07:08:10.781Z,9.60
2017-09-07T07:10:37.180Z,10.63
2017-09-07T07:13:03.576Z,12.20
2017-09-07T07:15:29.950Z,9.97
2017-09-07T07:17:56.331Z,10.87
2017-09-07T07:20:22.716Z,6.20
2017-09-07T07:22:49.090Z,6.00
2017-09-07T07:25:15.499Z,6.47
2017-09-07T07:27:41.898Z,5.90
2017-09-07T07:30:08.292Z,6.80
2017-09-07T07:32:34.688Z,5.57
2017-09-07T07:35:01.102Z,6.03
2017-09-07T07:37:27.489Z,4.30
2017-09-07T07:39:53.900Z,4.70
2017-09-07T07:42:20.286Z,4.30
2017-09-07T07:44:46.683Z,4.30
2017-09-07T07:47:13.072Z,4.07
2017-09-07T07:49:39.466Z,4.20
2017-09-07T07:52:05.847Z,4.50
2017-09-07T07:54:32.235Z,3.23
2017-09-07T07:56:58.628Z,3.70
2017-09-07T07:59:24.999Z,3.73
2017-09-07T08:01:51.382Z,2.33
2017-09-07T08:04:17.775Z,3.63
2017-09-07T08:06:44.160Z,2.55
2017-09-07T08:09:10.546Z,3.27
2017-09-07T08:11:36.931Z,2.30
2017-09-07T08:14:03.329Z,3.00
2017-09-07T08:16:29.723Z,2.60
2017-09-07T08:18:56.107Z,2.90
2017-09-07T08:21:22.469Z,3.25
2017-09-07T08:23:48.834Z,2.95
2017-09-07T08:26:15.225Z,2.70
2017-09-07T08:28:41.593Z,2.75
2017-09-07T08:31:07.978Z,2.30
2017-09-07T08:33:34.357Z,2.03
2017-09-07T08:36:00.734Z,2.92
2017-09-07T08:38:27.117Z,2.10
2017-09-07T08:40:53.499Z,2.63
2017-09-07T08:43:19.895Z,2.90
2017-09-07T08:45:46.292Z,2.03
2017-09-07T08:48:12.664Z,2.17
2017-09-07T08:50:39.040Z,1.58
2017-09-07T08:53:05.414Z,2.30
2017-09-07T08:55:31.806Z,1.83
2017-09-07T08:57:58.178Z,2.33
2017-09-07T09:00:24.559Z,2.50
2017-09-07T09:02:50.926Z,2.60
2017-09-07T09:05:17.308Z,2.20
2017-09-07T09:07:43.689Z,2.00
2017-09-07T09:10:10.090Z,2.10
2017-09-07T09:12:36.484Z,2.47
2017-09-07T09:15:02.888Z,3.53
2017-09-07T09:17:29.273Z,2.42
2017-09-07T09:19:55.642Z,1.80
2017-09-07T09:22:22.038Z,1.70
2017-09-07T09:24:48.422Z,2.37
2017-09-07T09:27:14.834Z,1.92
2017-09-07T09:29:41.209Z,2.10
2017-09-07T09:32:07.600Z,1.62
2017-09-07T09:34:33.989Z,2.00
2017-09-07T09:37:00.372Z,2.28
2017-09-07T09:39:26.769Z,2.10
2017-09-07T09:41:53.160Z,1.50
2017-09-07T09:44:19.602Z,2.00
2017-09-07T09:46:45.986Z,2.10
2017-09-07T09:49:12.365Z,1.42
2017-09-07T09:51:38.813Z,2.15
2017-09-07T09:54:05.211Z,1.92
2017-09-07T09:56:31.581Z,1.62
2017-09-07T09:58:58.015Z,1.67
2017-09-07T10:01:24.394Z,1.55
2017-09-07T10:03:50.766Z,1.95
2017-09-07T10:06:17.185Z,1.92
2017-09-07T10:08:43.562Z,1.33
2017-09-07T10:11:09.955Z,1.52
2017-09-07T10:13:36.390Z,2.50
2017-09-07T10:16:02.808Z,1.80
2017-09-07T10:18:29.229Z,2.00
2017-09-07T10:20:55.651Z,2.08
2017-09-07T10:23:22.040Z,1.80
2017-09-07T10:25:48.431Z,1.35
2017-09-07T10:28:14.850Z,1.77
2017-09-07T10:30:41.217Z,2.25
2017-09-07T10:33:07.610Z,2.40
2017-09-07T10:35:34.049Z,2.03
2017-09-07T10:38:00.420Z,1.98
2017-09-07T10:40:26.866Z,1.73
2017-09-07T10:42:53.276Z,2.37
2017-09-07T10:45:19.677Z,2.03
2017-09-07T10:47:46.068Z,2.05
2017-09-07T10:50:12.445Z,1.87
2017-09-07T10:52:38.825Z,1.60
2017-09-07T10:55:05.206Z,1.50
2017-09-07T10:57:31.577Z,1.70
2017-09-07T10:59:57.998Z,2.03
2017-09-07T11:02:24.378Z,2.72
2017-09-07T11:04:50.772Z,1.90
2017-09-07T11:07:17.141Z,1.70
2017-09-07T11:09:43.496Z,1.70
2017-09-07T11:12:09.879Z,1.55
2017-09-07T11:14:36.260Z,1.70
2017-09-07T11:17:02.672Z,1.85
2017-09-07T11:19:29.081Z,1.48
2017-09-07T11:21:55.467Z,1.98
2017-09-07T11:24:21.893Z,1.55
2017-09-07T11:26:48.275Z,2.00
2017-09-07T11:29:14.664Z,1.85
2017-09-07T11:31:41.097Z,1.98
2017-09-07T11:34:07.484Z,1.60
2017-09-07T11:36:33.858Z,2.70
2017-09-07T11:39:00.317Z,1.98
2017-09-07T11:41:26.699Z,2.10
2017-09-07T11:43:53.088Z,1.37
2017-09-07T11:46:19.531Z,1.20
2017-09-07T11:48:45.926Z,2.08
2017-09-07T11:51:12.317Z,1.50
2017-09-07T11:53:38.816Z,1.87
2017-09-07T11:56:05.189Z,1.85
2017-09-07T11:58:31.578Z,1.98
2017-09-07T12:00:58.016Z,1.73
2017-09-07T12:03:24.389Z,1.87
2017-09-07T12:05:50.769Z,2.30
2017-09-07T12:08:17.201Z,1.48
2017-09-07T12:10:43.584Z,1.80
2017-09-07T12:13:09.963Z,1.27
2017-09-07T12:15:36.428Z,1.60
2017-09-07T12:18:02.827Z,2.08
2017-09-07T12:20:29.193Z,1.70
2017-09-07T12:22:55.618Z,1.60
2017-09-07T12:25:21.974Z,3.70
2017-09-07T12:27:48.329Z,1.40
2017-09-07T12:30:14.774Z,3.35
2017-09-07T12:32:41.136Z,1.40
2017-09-07T12:35:07.520Z,1.58
2017-09-07T12:37:34.003Z,1.70
2017-09-07T12:40:00.378Z,1.77
2017-09-07T12:42:26.749Z,1.30
2017-09-07T12:44:53.190Z,1.65
2017-09-07T12:47:20.030Z,1.50
2017-09-07T12:49:46.432Z,1.95
2017-09-07T12:52:12.983Z,1.67
2017-09-07T12:54:40.227Z,1.73
2017-09-07T12:57:07.352Z,1.33
2017-09-07T12:59:35.201Z,1.73
2017-09-07T13:02:01.774Z,1.80
2017-09-07T13:04:28.149Z,1.50
2017-09-07T13:06:54.589Z,2.93
2017-09-07T13:09:20.944Z,2.00
2017-09-07T13:11:47.313Z,1.90
2017-09-07T13:14:13.754Z,1.67
2017-09-07T13:16:40.109Z,1.70
2017-09-07T13:19:06.468Z,2.03
2017-09-07T13:21:32.892Z,2.35
2017-09-07T13:23:59.266Z,2.87
2017-09-07T13:26:25.635Z,4.07
2017-09-07T13:28:52.064Z,2.30
2017-09-07T13:31:18.502Z,2.20
2017-09-07T13:33:44.866Z,2.10
2017-09-07T13:36:11.241Z,1.93
2017-09-07T13:38:37.684Z,2.07
2017-09-07T13:41:04.009Z,1.63
2017-09-07T13:43:30.409Z,2.30
2017-09-07T13:45:56.852Z,2.00
2017-09-07T13:48:23.154Z,4.43
2017-09-07T13:50:49.448Z,2.33
2017-09-07T13:53:15.807Z,2.00
2017-09-07T13:55:42.209Z,2.17
2017-09-07T13:58:08.526Z,1.93
2017-09-07T14:00:34.894Z,2.37
2017-09-07T14:03:01.202Z,3.03
2017-09-07T14:05:27.496Z,2.93
2017-09-07T14:07:53.789Z,1.93
2017-09-07T14:10:20.105Z,2.20
2017-09-07T14:12:46.415Z,2.00
2017-09-07T14:15:12.753Z,2.53
2017-09-07T14:17:39.060Z,2.20
2017-09-07T14:20:05.366Z,2.03
2017-09-07T14:22:31.702Z,2.33
2017-09-07T14:24:58.024Z,3.77
2017-09-07T14:27:24.333Z,2.10
2017-09-07T14:29:50.679Z,1.97
2017-09-07T14:32:16.975Z,2.53
2017-09-07T14:34:43.282Z,1.70
2017-09-07T14:37:09.630Z,1.97
2017-09-07T14:39:35.931Z,1.73
2017-09-07T14:42:02.231Z,2.20
2017-09-07T14:44:28.559Z,1.80
2017-09-07T14:46:54.852Z,2.07
2017-09-07T14:49:21.128Z,1.97
2017-09-07T14:51:47.467Z,1.70
2017-09-07T14:54:13.779Z,1.87
2017-09-07T14:56:40.085Z,2.87
2017-09-07T14:59:06.442Z,1.43
2017-09-07T15:01:32.771Z,1.53
2017-09-07T15:03:59.068Z,1.73
2017-09-07T15:06:25.559Z,1.43
2017-09-07T15:08:51.861Z,2.20
2017-09-07T15:11:18.169Z,1.50
2017-09-07T15:13:44.513Z,1.93
2017-09-07T15:16:10.902Z,2.10
2017-09-07T15:18:37.206Z,2.13
2017-09-07T15:21:03.553Z,2.13
2017-09-07T15:23:29.870Z,1.73
2017-09-07T15:25:56.152Z,1.50
2017-09-07T15:28:22.542Z,1.90
2017-09-07T15:30:48.861Z,2.17
2017-09-07T15:33:15.223Z,3.13
2017-09-07T15:35:41.585Z,1.63
2017-09-07T15:38:07.892Z,2.20
2017-09-07T15:40:34.209Z,2.57
2017-09-07T15:43:00.562Z,2.20
2017-09-07T15:45:26.861Z,2.77
2017-09-07T15:47:53.163Z,5.20
2017-09-07T15:50:19.495Z,7.17
2017-09-07T15:52:45.772Z,4.93
2017-09-07T15:55:12.060Z,7.57
2017-09-07T15:57:38.436Z,4.27
2017-09-07T16:00:04.724Z,3.50
2017-09-07T16:02:31.016Z,7.50
2017-09-07T16:04:57.368Z,4.00
2017-09-07T16:07:23.670Z,6.50
2017-09-07T16:09:49.986Z,3.93
2017-09-07T16:12:16.356Z,2.90
2017-09-07T16:14:42.651Z,4.63
2017-09-07T16:17:08.995Z,6.17
2017-09-07T16:19:35.372Z,10.70
2017-09-07T16:22:01.668Z,5.67
2017-09-07T16:24:27.974Z,3.80
2017-09-07T16:26:54.339Z,3.73
2017-09-07T16:29:20.650Z,4.27
2017-09-07T16:31:46.945Z,4.93
2017-09-07T16:34:13.291Z,3.70
2017-09-07T16:36:39.606Z,4.97
2017-09-07T16:39:05.914Z,5.40
2017-09-07T16:41:32.268Z,5.83
2017-09-07T16:43:58.558Z,5.57
2017-09-07T16:46:24.861Z,5.07
2017-09-07T16:48:51.224Z,4.30
2017-09-07T16:51:17.536Z,5.40
2017-09-07T16:53:43.839Z,3.70
2017-09-07T16:56:10.183Z,10.07
2017-09-07T16:58:36.486Z,7.20
2017-09-07T17:01:02.770Z,5.43
2017-09-07T17:03:29.132Z,4.80
2017-09-07T17:05:55.427Z,4.60
2017-09-07T17:08:21.739Z,4.87
2017-09-07T17:10:48.105Z,4.97
2017-09-07T17:13:14.403Z,4.80
2017-09-07T17:15:40.725Z,3.93
2017-09-07T17:18:07.106Z,4.60
2017-09-07T17:20:33.409Z,5.13
2017-09-07T17:22:59.907Z,5.63
2017-09-07T17:25:26.249Z,6.50
2017-09-07T17:27:52.559Z,6.13
2017-09-07T17:30:18.885Z,6.50
2017-09-07T17:32:45.232Z,5.00
2017-09-07T17:35:11.532Z,6.70
2017-09-07T17:37:37.817Z,6.43
2017-09-07T17:40:04.195Z,5.50
2017-09-07T17:42:30.497Z,5.80
2017-09-07T17:44:56.800Z,7.30
2017-09-07T17:47:23.165Z,5.60
2017-09-07T17:49:49.522Z,6.40
2017-09-07T17:52:15.823Z,6.90
2017-09-07T17:54:42.186Z,5.47
2017-09-07T17:57:08.492Z,6.13
2017-09-07T17:59:34.799Z,5.43
2017-09-07T18:02:01.169Z,5.00
2017-09-07T18:04:27.456Z,9.33
2017-09-07T18:06:53.778Z,5.93
2017-09-07T18:09:20.148Z,6.43
2017-09-07T18:11:46.465Z,5.83
2017-09-07T18:14:12.773Z,6.40
2017-09-07T18:16:39.136Z,7.47
2017-09-07T18:19:05.458Z,6.03
2017-09-07T18:21:31.775Z,7.17
2017-09-07T18:23:58.149Z,7.77
2017-09-07T18:26:24.451Z,5.90
2017-09-07T18:28:50.753Z,6.10
2017-09-07T18:31:17.125Z,6.87
2017-09-07T18:33:43.432Z,9.20
2017-09-07T18:36:09.744Z,7.70
2017-09-07T18:38:36.114Z,7.00
2017-09-07T18:41:02.425Z,5.90
2017-09-07T18:43:28.724Z,5.40
2017-09-07T18:45:55.100Z,4.67
2017-09-07T18:48:21.397Z,6.43
2017-09-07T18:50:47.677Z,6.10
2017-09-07T18:53:14.036Z,5.20
2017-09-07T18:55:40.324Z,6.73
2017-09-07T18:58:06.633Z,5.30
2017-09-07T19:00:33.003Z,5.53
2017-09-07T19:02:59.287Z,5.60
2017-09-07T19:05:25.614Z,6.20
2017-09-07T19:07:51.991Z,5.90
2017-09-07T19:10:18.318Z,5.50
2017-09-07T19:12:44.623Z,5.30
2017-09-07T19:15:10.965Z,6.00
2017-09-07T19:17:37.260Z,6.30
2017-09-07T19:20:03.562Z,6.23
2017-09-07T19:22:29.898Z,5.37
2017-09-07T19:24:56.198Z,5.90
2017-09-07T19:27:22.504Z,6.90
2017-09-07T19:29:48.834Z,5.53
2017-09-07T19:32:15.137Z,4.97
2017-09-07T19:34:41.449Z,5.17
2017-09-07T19:37:07.806Z,5.97
2017-09-07T19:39:34.116Z,4.90
2017-09-07T19:42:00.408Z,5.60
2017-09-07T19:44:26.800Z,5.50
2017-09-07T19:46:53.099Z,4.90
2017-09-07T19:49:19.399Z,5.67
2017-09-07T19:51:45.796Z,4.97
2017-09-07T19:54:12.122Z,6.00
2017-09-07T19:56:38.412Z,4.90
2017-09-07T19:59:04.767Z,5.30
2017-09-07T20:01:31.060Z,4.10
2017-09-07T20:03:57.361Z,5.10
2017-09-07T20:06:23.724Z,4.60
2017-09-07T20:08:50.023Z,4.60
2017-09-07T20:11:16.333Z,5.40
2017-09-07T20:13:42.618Z,4.57
2017-09-07T20:16:08.905Z,4.23
2017-09-07T20:18:35.202Z,4.93
2017-09-07T20:21:01.559Z,4.53
2017-09-07T20:23:27.875Z,5.00
2017-09-07T20:25:54.203Z,4.90
2017-09-07T20:28:20.508Z,5.33
2017-09-07T20:30:46.807Z,5.00
2017-09-07T20:33:13.127Z,4.47
2017-09-07T20:35:39.439Z,5.00
2017-09-07T20:38:05.749Z,3.80
2017-09-07T20:40:32.063Z,4.97
2017-09-07T20:42:58.375Z,5.17
2017-09-07T20:45:24.678Z,4.40
2017-09-07T20:47:50.993Z,4.73
2017-09-07T20:50:17.287Z,4.50
2017-09-07T20:52:43.577Z,3.97
2017-09-07T20:55:09.885Z,4.17
2017-09-07T20:57:36.206Z,3.73
2017-09-07T21:00:02.504Z,4.37
2017-09-07T21:02:28.808Z,4.70
2017-09-07T21:04:55.100Z,4.87
2017-09-07T21:07:21.404Z,4.70
2017-09-07T21:09:47.705Z,5.50
2017-09-07T21:12:14.019Z,4.90
2017-09-07T21:14:40.331Z,5.10
2017-09-07T21:17:06.646Z,5.87
2017-09-07T21:19:32.941Z,4.70
2017-09-07T21:21:59.251Z,4.30
2017-09-07T21:24:25.560Z,5.20
2017-09-07T21:26:51.902Z,5.33
2017-09-07T21:29:18.205Z,30.93
2017-09-07T21:31:44.519Z,6.00
2017-09-07T21:34:10.807Z,4.70
2017-09-07T21:36:37.119Z,4.00
2017-09-07T21:39:03.439Z,5.37
2017-09-07T21:41:29.758Z,5.53
2017-09-07T21:43:56.226Z,5.57
2017-09-07T21:46:22.575Z,4.50
2017-09-07T21:48:48.922Z,4.80
2017-09-07T21:51:15.229Z,4.90
2017-09-07T21:53:41.552Z,5.37
2017-09-07T21:56:07.876Z,4.23
2017-09-07T21:58:34.186Z,4.43
2017-09-07T22:01:00.473Z,5.07
2017-09-07T22:03:26.765Z,4.83
2017-09-07T22:05:53.048Z,4.87
2017-09-07T22:08:19.342Z,5.67
2017-09-07T22:10:45.634Z,4.80
2017-09-07T22:13:11.912Z,4.77
2017-09-07T22:15:38.266Z,5.10
2017-09-07T22:18:04.571Z,4.30
2017-09-07T22:20:30.895Z,4.53
2017-09-07T22:22:57.244Z,4.80
2017-09-07T22:25:23.529Z,5.10
2017-09-07T22:27:49.805Z,4.00
2017-09-07T22:30:16.134Z,4.10
2017-09-07T22:32:42.416Z,4.77
2017-09-07T22:35:08.696Z,4.50
2017-09-07T22:37:35.055Z,5.40
2017-09-07T22:40:01.347Z,4.30
2017-09-07T22:42:27.635Z,4.83
2017-09-07T22:44:53.979Z,4.63
2017-09-07T22:47:20.257Z,4.03
2017-09-07T22:49:46.571Z,4.33
2017-09-07T22:52:12.916Z,4.67
2017-09-07T22:54:39.208Z,4.93
2017-09-07T22:57:05.511Z,4.57
2017-09-07T22:59:31.847Z,4.43
2017-09-07T23:01:58.140Z,4.43
2017-09-07T23:04:24.444Z,4.60
2017-09-07T23:06:50.818Z,4.80
2017-09-07T23:09:17.101Z,4.93
2017-09-07T23:11:43.401Z,4.63
2017-09-07T23:14:09.750Z,4.90
2017-09-07T23:16:36.023Z,5.63
2017-09-07T23:19:02.394Z,5.17
2017-09-07T23:21:28.730Z,4.70
2017-09-07T23:23:55.046Z,5.00
2017-09-07T23:26:21.355Z,5.20
2017-09-07T23:28:47.705Z,4.73
2017-09-07T23:31:14.002Z,5.53
2017-09-07T23:33:40.304Z,5.33
2017-09-07T23:36:06.647Z,4.90
2017-09-07T23:38:32.949Z,5.97
2017-09-07T23:40:59.236Z,4.77
2017-09-07T23:43:25.558Z,4.70
2017-09-07T23:45:51.890Z,4.80
2017-09-07T23:48:18.178Z,5.33
2017-09-07T23:50:44.537Z,5.43
2017-09-07T23:53:10.843Z,5.23
2017-09-07T23:55:37.129Z,6.27
2017-09-07T23:58:03.454Z,5.90
